createdAt,value
2019-03-04T00:00:48.280Z,2.27
2019-03-04T00:03:17.110Z,2.37
2019-03-04T00:05:46.007Z,2.20
2019-03-04T00:08:14.822Z,2.73
2019-03-04T00:10:43.488Z,2.30
2019-03-04T00:13:12.183Z,2.67
2019-03-04T00:15:40.900Z,2.30
2019-03-04T00:18:09.604Z,1.67
2019-03-04T00:20:38.275Z,2.00
2019-03-04T00:23:07.834Z,3.17
2019-03-04T00:25:36.531Z,2.60
2019-03-04T00:28:05.292Z,2.40
2019-03-04T00:30:33.970Z,1.80
2019-03-04T00:33:02.659Z,2.60
2019-03-04T00:35:31.330Z,2.00
2019-03-04T00:38:00.024Z,2.03
2019-03-04T00:40:29.989Z,2.07
2019-03-04T00:42:58.997Z,2.30
2019-03-04T00:45:27.655Z,2.33
2019-03-04T00:47:56.559Z,2.30
2019-03-04T00:50:25.241Z,2.20
2019-03-04T00:52:53.894Z,2.00
2019-03-04T00:55:22.591Z,2.20
2019-03-04T00:57:51.260Z,2.40
2019-03-04T01:00:27.030Z,2.30
2019-03-04T01:02:55.740Z,2.17
2019-03-04T01:05:24.487Z,2.20
2019-03-04T01:07:53.326Z,1.93
2019-03-04T01:10:22.011Z,2.87
2019-03-04T01:12:50.718Z,3.37
2019-03-04T01:15:22.635Z,2.43
2019-03-04T01:17:51.408Z,2.53
2019-03-04T01:20:21.081Z,1.53
2019-03-04T01:22:49.788Z,2.37
2019-03-04T01:25:19.752Z,1.97
2019-03-04T01:27:48.467Z,1.70
2019-03-04T01:30:22.315Z,2.00
2019-03-04T01:32:51.519Z,1.97
2019-03-04T01:35:20.480Z,1.60
2019-03-04T01:37:49.194Z,1.70
2019-03-04T01:40:19.858Z,1.80
2019-03-04T01:42:48.553Z,1.70
2019-03-04T01:45:17.986Z,1.57
2019-03-04T01:47:46.777Z,1.60
2019-03-04T01:50:19.141Z,2.13
2019-03-04T01:52:48.484Z,1.57
2019-03-04T01:55:18.587Z,1.50
2019-03-04T01:57:47.296Z,1.60
2019-03-04T02:00:18.462Z,1.30
2019-03-04T02:02:47.362Z,1.40
2019-03-04T02:05:16.739Z,1.40
2019-03-04T02:07:45.547Z,1.10
2019-03-04T02:10:16.011Z,1.27
2019-03-04T02:12:44.947Z,1.27
2019-03-04T02:15:16.270Z,1.43
2019-03-04T02:17:44.947Z,1.20
2019-03-04T02:20:18.166Z,1.80
2019-03-04T02:22:47.036Z,1.00
2019-03-04T02:25:38.541Z,1.17
2019-03-04T02:28:07.228Z,1.33
2019-03-04T02:30:35.908Z,0.90
2019-03-04T02:33:04.608Z,1.10
2019-03-04T02:35:33.299Z,0.97
2019-03-04T02:38:01.994Z,0.90
2019-03-04T02:40:30.687Z,0.93
2019-03-04T02:42:59.399Z,1.07
2019-03-04T02:45:28.247Z,1.10
2019-03-04T02:47:56.959Z,0.90
2019-03-04T02:50:25.667Z,0.70
2019-03-04T02:52:54.364Z,0.83
2019-03-04T02:55:23.086Z,0.80
2019-03-04T02:57:51.769Z,0.97
2019-03-04T03:00:20.616Z,0.80
2019-03-04T03:02:49.380Z,0.73
2019-03-04T03:05:18.171Z,1.00
2019-03-04T03:07:46.885Z,1.13
2019-03-04T03:10:16.030Z,0.80
2019-03-04T03:12:44.801Z,1.07
2019-03-04T03:15:15.747Z,0.80
2019-03-04T03:17:44.465Z,0.90
2019-03-04T03:20:14.239Z,0.83
2019-03-04T03:22:42.907Z,0.90
2019-03-04T03:25:13.673Z,0.60
2019-03-04T03:27:42.379Z,0.80
2019-03-04T03:30:16.629Z,0.80
2019-03-04T03:32:45.352Z,1.00
2019-03-04T03:35:14.348Z,0.60
2019-03-04T03:37:43.004Z,1.03
2019-03-04T03:40:16.968Z,1.00
2019-03-04T03:42:45.629Z,1.07
2019-03-04T03:45:15.428Z,1.40
2019-03-04T03:47:44.108Z,1.17
2019-03-04T03:50:19.354Z,0.90
2019-03-04T03:52:48.032Z,1.00
2019-03-04T03:55:17.161Z,1.30
2019-03-04T03:57:46.041Z,1.30
2019-03-04T04:00:17.309Z,1.30
2019-03-04T04:02:46.060Z,1.23
2019-03-04T04:05:14.841Z,1.30
2019-03-04T04:07:43.571Z,1.50
2019-03-04T04:10:16.527Z,1.90
2019-03-04T04:12:45.213Z,1.17
2019-03-04T04:15:15.864Z,1.77
2019-03-04T04:17:44.564Z,1.30
2019-03-04T04:20:13.641Z,1.73
2019-03-04T04:22:42.645Z,1.27
2019-03-04T04:25:12.220Z,1.67
2019-03-04T04:27:40.963Z,2.20
2019-03-04T04:30:16.358Z,1.20
2019-03-04T04:32:45.031Z,1.13
2019-03-04T04:35:13.722Z,1.70
2019-03-04T04:37:42.432Z,5.50
2019-03-04T04:40:13.336Z,1.53
2019-03-04T04:42:42.266Z,1.00
2019-03-04T04:45:11.323Z,1.43
2019-03-04T04:47:41.523Z,1.77
2019-03-04T04:50:19.187Z,0.90
2019-03-04T04:52:47.861Z,0.83
2019-03-04T04:55:16.578Z,1.50
2019-03-04T04:57:45.269Z,1.37
2019-03-04T05:00:18.884Z,1.00
2019-03-04T05:02:47.558Z,1.40
2019-03-04T05:05:16.256Z,1.00
2019-03-04T05:07:44.933Z,1.00
2019-03-04T05:10:19.162Z,0.83
2019-03-04T05:12:47.840Z,1.00
2019-03-04T05:15:17.152Z,1.00
2019-03-04T05:17:45.863Z,0.60
2019-03-04T05:20:20.004Z,1.30
2019-03-04T05:22:48.710Z,0.90
2019-03-04T05:25:17.484Z,1.03
2019-03-04T05:27:46.148Z,0.80
2019-03-04T05:30:19.461Z,0.90
2019-03-04T05:32:48.131Z,1.07
2019-03-04T05:35:16.905Z,0.77
2019-03-04T05:37:45.590Z,0.90
2019-03-04T05:40:21.439Z,1.80
2019-03-04T05:42:50.155Z,1.07
2019-03-04T05:45:19.528Z,1.17
2019-03-04T05:47:48.218Z,1.23
2019-03-04T05:50:24.660Z,1.27
2019-03-04T05:52:53.482Z,0.80
2019-03-04T05:55:22.128Z,0.87
2019-03-04T05:57:50.884Z,1.27
2019-03-04T06:00:25.429Z,0.90
2019-03-04T06:03:00.058Z,1.00
2019-03-04T06:05:28.731Z,1.87
2019-03-04T06:08:04.913Z,1.50
2019-03-04T06:10:33.612Z,1.37
2019-03-04T06:13:02.300Z,1.23
2019-03-04T06:15:31.013Z,1.00
2019-03-04T06:17:59.934Z,1.10
2019-03-04T06:20:28.614Z,1.33
2019-03-04T06:22:57.307Z,1.17
2019-03-04T06:25:29.982Z,1.40
2019-03-04T06:27:58.922Z,3.50
2019-03-04T06:30:29.773Z,1.40
2019-03-04T06:32:58.444Z,0.87
2019-03-04T06:35:27.239Z,0.60
2019-03-04T06:37:56.139Z,1.17
2019-03-04T06:40:25.504Z,0.77
2019-03-04T06:42:54.196Z,0.50
2019-03-04T06:45:22.888Z,0.40
2019-03-04T06:47:51.603Z,0.30
2019-03-04T06:50:43.162Z,0.63
2019-03-04T06:53:11.864Z,0.40
2019-03-04T06:55:55.473Z,0.70
2019-03-04T06:58:24.174Z,0.40
2019-03-04T07:00:53.743Z,0.53
2019-03-04T07:03:22.571Z,0.40
2019-03-04T07:05:51.449Z,0.50
2019-03-04T07:08:35.363Z,0.50
2019-03-04T07:11:04.256Z,0.47
2019-03-04T07:13:32.935Z,0.50
2019-03-04T07:16:01.653Z,0.90
2019-03-04T07:18:30.359Z,0.50
2019-03-04T07:20:59.058Z,0.50
2019-03-04T07:23:27.981Z,0.57
2019-03-04T07:25:56.682Z,0.60
2019-03-04T07:28:25.426Z,0.70
2019-03-04T07:30:54.433Z,0.70
2019-03-04T07:33:23.210Z,1.17
2019-03-04T07:35:51.996Z,1.30
2019-03-04T07:38:23.648Z,0.80
2019-03-04T07:40:52.404Z,1.00
2019-03-04T07:43:21.166Z,0.63
2019-03-04T07:45:49.832Z,0.53
2019-03-04T07:48:18.554Z,0.80
2019-03-04T07:50:47.219Z,1.20
2019-03-04T07:53:15.912Z,0.70
2019-03-04T07:55:44.612Z,0.90
2019-03-04T07:58:13.323Z,0.93
2019-03-04T08:00:42.048Z,0.70
2019-03-04T08:03:10.751Z,0.80
2019-03-04T08:05:39.462Z,0.90
2019-03-04T08:08:09.930Z,0.80
2019-03-04T08:11:01.162Z,0.70
2019-03-04T08:13:52.875Z,1.13
2019-03-04T08:16:21.567Z,0.77
2019-03-04T08:18:50.277Z,0.80
2019-03-04T08:21:18.965Z,0.50
2019-03-04T08:23:47.671Z,0.63
2019-03-04T08:26:16.339Z,0.60
2019-03-04T08:28:45.253Z,0.73
2019-03-04T08:31:14.343Z,0.57
2019-03-04T08:33:43.121Z,0.60
2019-03-04T08:36:11.828Z,1.27
2019-03-04T08:38:40.510Z,1.20
2019-03-04T08:41:09.275Z,0.60
2019-03-04T08:43:38.000Z,0.70
2019-03-04T08:46:07.493Z,0.40
2019-03-04T08:48:36.203Z,0.60
2019-03-04T08:51:04.909Z,1.00
2019-03-04T08:53:33.616Z,0.93
2019-03-04T08:56:02.295Z,0.87
2019-03-04T08:58:30.973Z,1.73
2019-03-04T09:00:59.773Z,1.13
2019-03-04T09:03:28.430Z,1.10
2019-03-04T09:05:57.138Z,1.43
2019-03-04T09:08:25.812Z,0.60
2019-03-04T09:10:54.713Z,1.40
2019-03-04T09:13:23.411Z,0.83
2019-03-04T09:15:52.090Z,0.83
2019-03-04T09:18:20.805Z,1.00
2019-03-04T09:20:49.516Z,1.00
2019-03-04T09:23:18.171Z,0.80
2019-03-04T09:25:49.936Z,1.03
2019-03-04T09:28:18.643Z,1.00
2019-03-04T09:30:47.355Z,1.10
2019-03-04T09:33:16.040Z,1.10
2019-03-04T09:35:44.814Z,1.23
2019-03-04T09:38:13.545Z,0.93
2019-03-04T09:40:42.436Z,1.17
2019-03-04T09:43:11.143Z,2.50
2019-03-04T09:45:39.814Z,1.30
2019-03-04T09:48:08.527Z,1.37
2019-03-04T09:50:37.222Z,1.07
2019-03-04T09:53:05.888Z,1.30
2019-03-04T09:55:34.817Z,1.17
2019-03-04T09:58:03.487Z,1.50
2019-03-04T10:00:40.434Z,1.00
2019-03-04T10:03:30.491Z,1.63
2019-03-04T10:06:33.748Z,1.13
2019-03-04T10:09:21.902Z,1.40
2019-03-04T10:12:05.657Z,1.47
2019-03-04T10:14:45.918Z,1.30
2019-03-04T10:17:26.399Z,1.40
2019-03-04T10:20:07.047Z,1.60
2019-03-04T10:22:41.604Z,2.20
2019-03-04T10:25:25.282Z,2.17
2019-03-04T10:28:06.006Z,1.70
2019-03-04T10:30:43.540Z,1.60
2019-03-04T10:33:24.127Z,2.20
2019-03-04T10:36:04.939Z,1.50
2019-03-04T10:38:56.285Z,1.80
2019-03-04T10:41:40.019Z,1.80
2019-03-04T10:44:26.734Z,1.80
2019-03-04T10:46:56.854Z,1.43
2019-03-04T10:49:27.091Z,1.53
2019-03-04T10:51:55.956Z,1.33
2019-03-04T10:54:24.850Z,1.83
2019-03-04T10:56:53.567Z,2.60
2019-03-04T11:02:21.914Z,1.60
2019-03-04T11:04:50.594Z,1.90
2019-03-04T11:07:20.754Z,1.83
2019-03-04T11:09:49.487Z,1.20
2019-03-04T11:12:18.165Z,1.70
2019-03-04T11:14:46.899Z,1.00
2019-03-04T11:17:17.612Z,1.53
2019-03-04T11:19:46.608Z,1.60
2019-03-04T11:22:15.320Z,1.53
2019-03-04T11:24:44.315Z,1.60
2019-03-04T11:27:21.922Z,2.00
2019-03-04T11:29:50.890Z,2.20
2019-03-04T11:32:19.598Z,2.00
2019-03-04T11:34:48.318Z,2.30
2019-03-04T11:37:17.095Z,1.57
2019-03-04T11:39:47.385Z,1.27
2019-03-04T11:42:16.066Z,1.27
2019-03-04T11:44:44.863Z,1.07
2019-03-04T11:47:13.736Z,1.27
2019-03-04T11:49:42.446Z,1.10
2019-03-04T11:52:11.318Z,0.67
2019-03-04T11:54:39.983Z,1.40
2019-03-04T11:57:08.681Z,0.47
2019-03-04T11:59:37.349Z,0.43
2019-03-04T12:02:07.638Z,0.60
2019-03-04T12:04:36.350Z,0.90
2019-03-04T12:07:05.047Z,1.17
2019-03-04T12:09:34.017Z,0.80
2019-03-04T12:12:02.712Z,1.00
2019-03-04T12:14:33.126Z,1.20
2019-03-04T12:17:01.839Z,1.77
2019-03-04T12:19:30.511Z,1.53
2019-03-04T12:22:00.899Z,1.60
2019-03-04T12:24:29.576Z,1.67
2019-03-04T12:26:58.305Z,1.60
2019-03-04T12:29:26.984Z,2.07
2019-03-04T12:31:57.287Z,2.43
2019-03-04T12:34:25.967Z,1.70
2019-03-04T12:36:54.693Z,2.23
2019-03-04T12:39:23.691Z,2.30
2019-03-04T12:41:52.384Z,1.80
2019-03-04T12:44:21.075Z,1.73
2019-03-04T12:46:49.806Z,1.73
2019-03-04T12:49:18.541Z,1.73
2019-03-04T12:51:47.235Z,1.27
2019-03-04T12:54:16.115Z,1.90
2019-03-04T12:56:44.945Z,1.80
2019-03-04T12:59:13.611Z,1.17
2019-03-04T13:01:43.811Z,1.47
2019-03-04T13:04:12.516Z,1.97
2019-03-04T13:06:41.346Z,1.60
2019-03-04T13:09:14.453Z,1.30
2019-03-04T13:11:40.436Z,2.17
2019-03-04T13:14:09.163Z,1.87
2019-03-04T13:16:37.929Z,1.70
2019-03-04T13:19:06.643Z,1.50
2019-03-04T13:21:35.320Z,1.73
2019-03-04T13:24:04.228Z,1.53
2019-03-04T13:26:32.913Z,1.50
2019-03-04T13:29:01.627Z,2.17
2019-03-04T13:31:30.304Z,2.70
2019-03-04T13:33:58.994Z,2.20
2019-03-04T13:36:27.722Z,3.73
2019-03-04T13:38:56.431Z,2.30
2019-03-04T13:41:25.109Z,2.10
2019-03-04T13:43:53.779Z,1.80
2019-03-04T13:46:22.502Z,2.50
2019-03-04T13:48:51.286Z,2.23
2019-03-04T13:51:19.982Z,2.20
2019-03-04T13:53:48.657Z,1.97
2019-03-04T13:56:17.521Z,2.67
2019-03-04T13:58:46.218Z,2.50
2019-03-04T14:01:14.924Z,2.37
2019-03-04T14:03:43.623Z,2.10
2019-03-04T14:06:12.336Z,1.83
2019-03-04T14:08:41.053Z,2.43
2019-03-04T14:11:09.861Z,2.20
2019-03-04T14:13:38.670Z,3.17
2019-03-04T14:16:07.390Z,2.87
2019-03-04T14:18:36.073Z,2.70
2019-03-04T14:21:06.206Z,3.50
2019-03-04T14:23:34.921Z,3.10
2019-03-04T14:26:03.649Z,3.37
2019-03-04T14:28:32.385Z,3.53
2019-03-04T14:31:01.097Z,3.30
2019-03-04T14:33:29.823Z,3.03
2019-03-04T14:35:58.603Z,3.13
2019-03-04T14:38:27.269Z,3.80
2019-03-04T14:40:56.121Z,3.90
2019-03-04T14:43:24.861Z,2.47
2019-03-04T14:45:54.347Z,2.80
2019-03-04T14:48:23.264Z,2.60
2019-03-04T14:50:51.969Z,2.17
2019-03-04T14:53:20.648Z,2.53
2019-03-04T14:55:49.479Z,2.90
2019-03-04T14:58:18.277Z,2.70
2019-03-04T15:00:48.777Z,2.77
2019-03-04T15:03:23.091Z,3.07
2019-03-04T15:05:47.922Z,2.57
2019-03-04T15:08:16.623Z,3.70
2019-03-04T15:10:45.324Z,2.40
2019-03-04T15:13:14.146Z,2.30
2019-03-04T15:15:42.888Z,2.47
2019-03-04T15:18:11.603Z,2.47
2019-03-04T15:20:40.416Z,1.80
2019-03-04T15:23:09.150Z,2.10
2019-03-04T15:25:43.155Z,2.53
2019-03-04T15:28:13.788Z,2.27
2019-03-04T15:30:44.546Z,1.77
2019-03-04T15:33:18.184Z,1.30
2019-03-04T15:35:44.168Z,1.40
2019-03-04T15:38:12.938Z,2.00
2019-03-04T15:40:41.721Z,1.50
2019-03-04T15:43:10.461Z,1.70
2019-03-04T15:45:40.920Z,2.10
2019-03-04T15:48:09.720Z,2.97
2019-03-04T15:50:38.426Z,1.87
2019-03-04T15:53:07.116Z,2.67
2019-03-04T15:55:35.786Z,1.80
2019-03-04T15:58:05.139Z,1.70
2019-03-04T16:00:35.743Z,2.00
2019-03-04T16:03:05.869Z,1.10
2019-03-04T16:05:34.642Z,1.10
2019-03-04T16:08:07.659Z,1.13
2019-03-04T16:10:37.218Z,1.53
2019-03-04T16:13:07.310Z,1.30
2019-03-04T16:15:41.711Z,1.17
2019-03-04T16:18:10.415Z,1.47
2019-03-04T16:20:39.095Z,1.57
2019-03-04T16:23:07.799Z,1.07
2019-03-04T16:25:36.768Z,1.30
2019-03-04T16:28:23.656Z,1.63
2019-03-04T16:30:52.638Z,1.10
2019-03-04T16:33:23.081Z,1.53
2019-03-04T16:35:51.744Z,1.13
2019-03-04T16:38:20.481Z,1.57
2019-03-04T16:40:49.153Z,1.23
2019-03-04T16:43:17.981Z,1.10
2019-03-04T16:45:46.718Z,1.70
2019-03-04T16:48:15.480Z,1.40
2019-03-04T16:50:45.840Z,1.10
2019-03-04T16:53:17.620Z,1.30
2019-03-04T16:55:46.292Z,1.70
2019-03-04T16:58:14.999Z,1.33
2019-03-04T17:00:43.856Z,1.43
2019-03-04T17:03:12.546Z,1.10
2019-03-04T17:05:41.413Z,1.13
2019-03-04T17:08:10.476Z,1.40
2019-03-04T17:10:39.133Z,1.33
2019-03-04T17:13:07.858Z,1.70
2019-03-04T17:15:36.681Z,1.00
2019-03-04T17:18:05.510Z,1.20
2019-03-04T17:20:34.195Z,1.60
2019-03-04T17:23:02.886Z,1.20
2019-03-04T17:25:31.591Z,0.97
2019-03-04T17:28:00.282Z,1.67
2019-03-04T17:30:29.726Z,1.60
2019-03-04T17:33:00.066Z,1.73
2019-03-04T17:35:29.085Z,1.93
2019-03-04T17:37:57.871Z,2.53
2019-03-04T17:40:30.725Z,1.13
2019-03-04T17:42:59.397Z,1.17
2019-03-04T17:45:29.361Z,1.23
2019-03-04T17:47:58.034Z,1.50
2019-03-04T17:50:38.167Z,1.27
2019-03-04T17:53:08.988Z,1.23
2019-03-04T17:55:37.719Z,1.52
2019-03-04T17:58:07.195Z,1.20
2019-03-04T18:00:37.832Z,1.03
2019-03-04T18:03:06.637Z,0.90
2019-03-04T18:05:36.327Z,1.10
2019-03-04T18:08:05.859Z,1.30
2019-03-04T18:10:34.633Z,1.70
2019-03-04T18:13:05.594Z,1.00
2019-03-04T18:15:39.459Z,1.10
2019-03-04T18:18:08.137Z,1.40
2019-03-04T18:20:36.844Z,0.90
2019-03-04T18:23:05.528Z,1.30
2019-03-04T18:25:49.333Z,1.23
2019-03-04T18:28:40.944Z,1.93
2019-03-04T18:31:18.692Z,2.40
2019-03-04T18:33:59.560Z,1.30
2019-03-04T18:36:47.871Z,1.17
2019-03-04T18:39:28.122Z,1.17
2019-03-04T18:42:08.726Z,1.53
2019-03-04T18:44:48.959Z,0.83
2019-03-04T18:47:48.115Z,1.80
2019-03-04T18:50:16.817Z,1.17
2019-03-04T18:52:45.487Z,1.47
2019-03-04T18:55:14.415Z,1.37
2019-03-04T18:57:43.205Z,0.80
2019-03-04T19:00:21.199Z,1.10
2019-03-04T19:02:49.983Z,1.07
2019-03-04T19:05:18.982Z,1.30
2019-03-04T19:07:47.672Z,1.57
2019-03-04T19:10:16.388Z,1.20
2019-03-04T19:12:45.265Z,1.50
2019-03-04T19:15:14.075Z,1.37
2019-03-04T19:17:42.775Z,1.47
2019-03-04T19:20:14.601Z,1.20
2019-03-04T19:22:43.371Z,1.50
2019-03-04T19:25:12.286Z,1.30
2019-03-04T19:27:41.034Z,1.50
2019-03-04T19:30:11.937Z,1.20
2019-03-04T19:32:40.696Z,1.60
2019-03-04T19:35:11.681Z,1.90
2019-03-04T19:37:40.488Z,1.37
2019-03-04T19:40:12.219Z,1.00
2019-03-04T19:42:40.941Z,1.27
2019-03-04T19:45:18.776Z,1.70
2019-03-04T19:47:48.425Z,2.40
2019-03-04T19:50:17.347Z,1.20
2019-03-04T19:52:46.374Z,1.40
2019-03-04T19:55:17.179Z,1.60
2019-03-04T19:57:46.649Z,1.40
2019-03-04T20:00:20.915Z,1.37
2019-03-04T20:02:49.971Z,1.07
2019-03-04T20:05:20.250Z,1.60
2019-03-04T20:07:48.955Z,1.87
2019-03-04T20:10:18.204Z,1.87
2019-03-04T20:12:47.216Z,1.67
2019-03-04T20:15:24.450Z,1.33
2019-03-04T20:17:53.445Z,1.43
2019-03-04T20:20:23.624Z,1.50
2019-03-04T20:22:52.326Z,2.03
2019-03-04T20:25:21.335Z,1.93
2019-03-04T20:27:50.043Z,1.60
2019-03-04T20:30:20.413Z,1.60
2019-03-04T20:32:49.184Z,2.17
2019-03-04T20:35:18.746Z,2.63
2019-03-04T20:37:50.392Z,1.90
2019-03-04T20:40:19.081Z,2.40
2019-03-04T20:42:47.907Z,1.30
2019-03-04T20:45:18.505Z,2.20
2019-03-04T20:47:47.493Z,1.73
2019-03-04T20:50:18.647Z,1.50
2019-03-04T20:52:47.729Z,1.90
2019-03-04T20:55:16.548Z,2.13
2019-03-04T20:57:45.266Z,1.70
2019-03-04T21:00:30.384Z,1.60
2019-03-04T21:02:59.334Z,1.30
2019-03-04T21:05:29.079Z,1.53
2019-03-04T21:07:57.923Z,2.97
2019-03-04T21:10:26.931Z,2.00
2019-03-04T21:12:57.286Z,1.73
2019-03-04T21:15:26.358Z,1.77
2019-03-04T21:17:55.644Z,2.03
2019-03-04T21:20:24.349Z,1.60
2019-03-04T21:22:53.490Z,1.57
2019-03-04T21:25:55.584Z,1.63
2019-03-04T21:28:42.275Z,1.33
2019-03-04T21:31:22.830Z,2.03
2019-03-04T21:34:11.171Z,1.60
2019-03-04T21:36:58.489Z,1.80
2019-03-04T21:39:37.052Z,1.53
2019-03-04T21:42:23.719Z,2.13
2019-03-04T21:45:00.847Z,1.77
2019-03-04T21:47:35.849Z,1.03
2019-03-04T21:50:07.999Z,2.07
2019-03-04T21:52:39.895Z,1.37
2019-03-04T21:55:11.492Z,1.30
2019-03-04T21:57:43.159Z,1.00
2019-03-04T22:00:15.083Z,1.10
2019-03-04T22:02:49.506Z,0.87
2019-03-04T22:05:19.262Z,1.03
2019-03-04T22:07:48.942Z,0.90
2019-03-04T22:10:17.932Z,0.73
2019-03-04T22:12:46.915Z,1.07
2019-03-04T22:15:16.759Z,1.00
2019-03-04T22:17:45.669Z,1.20
2019-03-04T22:20:16.072Z,1.23
2019-03-04T22:22:44.875Z,1.00
2019-03-04T22:25:14.565Z,0.93
2019-03-04T22:27:43.262Z,1.27
2019-03-04T22:30:17.265Z,3.30
2019-03-04T22:32:45.946Z,1.60
2019-03-04T22:35:17.410Z,1.60
2019-03-04T22:37:46.798Z,1.63
2019-03-04T22:40:24.458Z,1.57
2019-03-04T22:42:53.114Z,1.60
2019-03-04T22:45:23.293Z,1.43
2019-03-04T22:47:52.687Z,2.70
2019-03-04T22:50:22.695Z,2.70
2019-03-04T22:52:51.589Z,1.90
2019-03-04T22:55:23.220Z,2.63
2019-03-04T22:57:52.254Z,1.70
2019-03-04T23:00:54.001Z,2.43
2019-03-04T23:03:27.828Z,3.17
2019-03-04T23:05:59.745Z,2.63
2019-03-04T23:08:28.514Z,2.00
2019-03-04T23:10:57.711Z,2.33
2019-03-04T23:13:29.359Z,2.27
2019-03-04T23:16:00.009Z,1.87
2019-03-04T23:18:28.712Z,2.30
2019-03-04T23:20:57.470Z,1.80
2019-03-04T23:23:26.186Z,2.30
2019-03-04T23:25:56.369Z,2.17
2019-03-04T23:28:25.343Z,2.57
2019-03-04T23:30:54.052Z,2.33
2019-03-04T23:33:22.751Z,2.90
2019-03-04T23:35:51.568Z,1.80
2019-03-04T23:38:20.352Z,2.50
2019-03-04T23:40:49.020Z,2.20
2019-03-04T23:43:17.921Z,2.57
2019-03-04T23:45:46.551Z,2.47
2019-03-04T23:48:15.226Z,2.37
2019-03-04T23:50:44.519Z,2.10
2019-03-04T23:53:13.195Z,1.60
2019-03-04T23:55:41.912Z,2.40
2019-03-04T23:58:10.563Z,2.33
